Time;durP1;ratioP1;P1;durP2;ratioP2;P2;SDS_P1;SDS_P2;PMS_P1;PMS_P2;Temp;Humidity;BMP_temperature;BMP_pressure;BME280_temperature;BME280_humidity;BME280_pressure;Samples;Min_cycle;Max_cycle;Signal;HPM_P1;HPM_P2
2022/04/11 00:02:20;;;;;;;0.30;0.30;;;;;;;;;;5114414;28;20203;-87
2022/04/11 00:04:47;;;;;;;0.40;0.40;;;;;;;;;;5114297;28;20199;-86
2022/04/11 00:07:14;;;;;;;0.50;0.50;;;;;;;;;;5114410;28;20290;-87
2022/04/11 00:09:42;;;;;;;0.43;0.43;;;;;;;;;;5114122;28;20191;-87
2022/04/11 00:12:12;;;;;;;0.60;0.60;;;;;;;;;;5114211;28;20751;-87
2022/04/11 00:14:39;;;;;;;0.50;0.50;;;;;;;;;;5114121;28;20196;-87
2022/04/11 00:17:07;;;;;;;0.50;0.50;;;;;;;;;;5114793;28;20545;-87
2022/04/11 00:19:34;;;;;;;0.40;0.40;;;;;;;;;;5114234;28;20611;-87
2022/04/11 00:22:01;;;;;;;0.43;0.43;;;;;;;;;;5114144;28;20191;-87
2022/04/11 00:24:29;;;;;;;0.47;0.47;;;;;;;;;;5113998;28;20199;-87
2022/04/11 00:26:56;;;;;;;0.40;0.40;;;;;;;;;;5113999;28;20192;-87
2022/04/11 00:29:25;;;;;;;0.50;0.50;;;;;;;;;;5114241;28;20278;-87
2022/04/11 00:31:52;;;;;;;0.40;0.40;;;;;;;;;;5113844;28;20218;-87
2022/04/11 00:34:19;;;;;;;0.40;0.40;;;;;;;;;;5113872;28;20241;-87
2022/04/11 00:36:47;;;;;;;0.40;0.40;;;;;;;;;;5113642;27;20199;-87
2022/04/11 00:39:14;;;;;;;0.40;0.40;;;;;;;;;;5113768;28;20235;-87
2022/04/11 00:41:41;;;;;;;0.40;0.40;;;;;;;;;;5113874;28;20196;-87
2022/04/11 00:44:09;;;;;;;0.50;0.50;;;;;;;;;;5113926;27;20620;-86
2022/04/11 00:46:38;;;;;;;0.40;0.40;;;;;;;;;;5114111;28;20184;-87
2022/04/11 00:49:05;;;;;;;0.40;0.40;;;;;;;;;;5114030;28;20203;-87
2022/04/11 00:51:32;;;;;;;0.50;0.50;;;;;;;;;;5113716;28;20278;-87
2022/04/11 00:54:00;;;;;;;0.40;0.40;;;;;;;;;;5113175;28;20187;-87
2022/04/11 00:56:29;;;;;;;0.40;0.40;;;;;;;;;;5113422;28;20191;-87
2022/04/11 00:58:56;;;;;;;1.30;0.40;;;;;;;;;;5113659;28;20654;-87
2022/04/11 01:01:24;;;;;;;0.30;0.30;;;;;;;;;;5113534;28;20282;-86
2022/04/11 01:03:52;;;;;;;0.40;0.40;;;;;;;;;;5113659;28;20195;-87
2022/04/11 01:06:20;;;;;;;0.40;0.40;;;;;;;;;;5113568;28;20191;-87
2022/04/11 01:08:47;;;;;;;0.50;0.50;;;;;;;;;;5113349;28;20705;-87
2022/04/11 01:11:14;;;;;;;0.40;0.40;;;;;;;;;;5113592;28;20282;-87
2022/04/11 01:13:42;;;;;;;0.43;0.43;;;;;;;;;;5113310;28;20194;-87
2022/04/11 01:16:09;;;;;;;0.40;0.40;;;;;;;;;;5113584;28;20196;-87
2022/04/11 01:18:37;;;;;;;0.40;0.40;;;;;;;;;;5113504;28;20743;-87
2022/04/11 01:21:10;;;;;;;0.40;0.40;;;;;;;;;;5113258;28;20706;-87
2022/04/11 01:23:39;;;;;;;0.50;0.50;;;;;;;;;;5113267;28;20191;-87
2022/04/11 01:26:07;;;;;;;0.50;0.50;;;;;;;;;;5113085;28;20290;-87
2022/04/11 01:28:34;;;;;;;0.40;0.40;;;;;;;;;;5113338;28;20199;-87
2022/04/11 01:31:02;;;;;;;0.50;0.50;;;;;;;;;;5113064;28;20274;-87
2022/04/11 01:33:30;;;;;;;0.50;0.50;;;;;;;;;;5113019;28;20195;-87
2022/04/11 01:35:58;;;;;;;0.60;0.60;;;;;;;;;;5113091;28;20202;-88
2022/04/11 01:38:25;;;;;;;0.63;0.63;;;;;;;;;;5113304;28;20196;-87
2022/04/11 01:40:54;;;;;;;0.40;0.40;;;;;;;;;;5112887;28;20225;-87
2022/04/11 01:43:22;;;;;;;0.50;0.50;;;;;;;;;;5113066;28;20202;-87
2022/04/11 01:45:49;;;;;;;0.50;0.50;;;;;;;;;;5113295;28;20202;-87
2022/04/11 01:48:17;;;;;;;0.30;0.30;;;;;;;;;;5112983;28;20192;-87
2022/04/11 01:50:44;;;;;;;0.50;0.50;;;;;;;;;;5112919;28;20282;-87
2022/04/11 01:53:12;;;;;;;0.40;0.40;;;;;;;;;;5112874;28;20660;-88
2022/04/11 01:55:40;;;;;;;0.40;0.40;;;;;;;;;;5112952;28;20214;-88
2022/04/11 01:58:09;;;;;;;0.50;0.50;;;;;;;;;;5113120;28;20268;-87
2022/04/11 02:00:37;;;;;;;0.50;0.50;;;;;;;;;;5112765;28;20227;-87
2022/04/11 02:03:06;;;;;;;0.63;0.63;;;;;;;;;;5112863;28;20202;-88
2022/04/11 02:05:34;;;;;;;0.60;0.60;;;;;;;;;;5114475;28;20202;-87
2022/04/11 02:08:02;;;;;;;0.63;0.63;;;;;;;;;;5116634;28;20264;-87
2022/04/11 02:10:29;;;;;;;0.50;0.50;;;;;;;;;;5116453;28;20205;-87
2022/04/11 02:12:56;;;;;;;0.50;0.50;;;;;;;;;;5116805;28;20197;-87
2022/04/11 02:15:25;;;;;;;0.57;0.57;;;;;;;;;;5116921;28;20191;-86
2022/04/11 02:17:52;;;;;;;0.60;0.60;;;;;;;;;;5116676;28;20660;-87
2022/04/11 02:20:22;;;;;;;0.70;0.70;;;;;;;;;;5116652;28;20207;-87
2022/04/11 02:22:51;;;;;;;0.60;0.60;;;;;;;;;;5116164;28;20294;-87
2022/04/11 02:25:20;;;;;;;0.60;0.60;;;;;;;;;;5116537;28;20580;-87
2022/04/11 02:27:48;;;;;;;0.53;0.53;;;;;;;;;;5115937;28;20290;-87
2022/04/11 02:30:16;;;;;;;0.50;0.50;;;;;;;;;;5116005;28;20188;-87
2022/04/11 02:32:46;;;;;;;0.60;0.60;;;;;;;;;;5116076;28;20294;-87
2022/04/11 02:35:13;;;;;;;0.60;0.60;;;;;;;;;;5116055;28;20714;-86
2022/04/11 02:37:40;;;;;;;0.47;0.47;;;;;;;;;;5115996;28;20291;-87
2022/04/11 02:40:08;;;;;;;0.70;0.70;;;;;;;;;;5116242;28;20227;-87
2022/04/11 02:42:36;;;;;;;0.70;0.70;;;;;;;;;;5116037;28;20242;-86
2022/04/11 02:45:03;;;;;;;0.70;0.70;;;;;;;;;;5116391;28;20253;-86
2022/04/11 02:47:31;;;;;;;0.67;0.67;;;;;;;;;;5115999;28;20225;-87
2022/04/11 02:49:59;;;;;;;0.80;0.80;;;;;;;;;;5115850;28;20369;-87
2022/04/11 02:52:28;;;;;;;0.90;0.90;;;;;;;;;;5115931;28;20191;-87
2022/04/11 02:54:55;;;;;;;0.80;0.80;;;;;;;;;;5116228;27;20668;-87
2022/04/11 02:57:23;;;;;;;1.70;1.10;;;;;;;;;;5116093;28;20199;-87
2022/04/11 02:59:50;;;;;;;1.10;1.10;;;;;;;;;;5337211;22;20235;-82
2022/04/11 03:02:17;;;;;;;1.20;1.10;;;;;;;;;;5074219;28;20205;-82
2022/04/11 03:04:45;;;;;;;1.43;1.33;;;;;;;;;;5073905;28;20197;-82
2022/04/11 03:07:13;;;;;;;1.17;1.07;;;;;;;;;;5074337;28;20582;-82
2022/04/11 03:09:41;;;;;;;1.07;1.07;;;;;;;;;;5073707;28;20197;-82
2022/04/11 03:12:09;;;;;;;1.40;1.30;;;;;;;;;;5074277;28;20205;-82
2022/04/11 03:14:37;;;;;;;1.50;1.40;;;;;;;;;;5073783;28;20229;-82
2022/04/11 03:17:04;;;;;;;1.40;1.30;;;;;;;;;;5071672;28;20683;-82
2022/04/11 03:19:32;;;;;;;1.70;1.60;;;;;;;;;;5073253;28;20215;-80
2022/04/11 03:21:59;;;;;;;1.80;1.70;;;;;;;;;;5073352;28;20197;-81
2022/04/11 03:24:28;;;;;;;1.50;1.40;;;;;;;;;;5073363;28;20197;-80
2022/04/11 03:26:55;;;;;;;1.50;1.40;;;;;;;;;;5073875;28;20581;-80
2022/04/11 03:29:22;;;;;;;1.10;1.10;;;;;;;;;;5073466;28;20238;-81
2022/04/11 03:31:49;;;;;;;1.50;1.40;;;;;;;;;;5073494;28;20201;-81
2022/04/11 03:34:17;;;;;;;1.23;1.13;;;;;;;;;;5073324;28;20197;-80
2022/04/11 03:36:44;;;;;;;1.37;1.27;;;;;;;;;;5073409;28;20201;-81
2022/04/11 03:39:11;;;;;;;1.27;1.20;;;;;;;;;;5073483;28;20201;-80
2022/04/11 03:41:43;;;;;;;1.17;1.17;;;;;;;;;;5073031;28;20311;-81
2022/04/11 03:44:10;;;;;;;0.80;0.80;;;;;;;;;;5073059;28;20280;-80
2022/04/11 03:46:38;;;;;;;0.90;0.90;;;;;;;;;;5073181;28;20201;-81
2022/04/11 03:49:05;;;;;;;0.80;0.80;;;;;;;;;;5072939;28;20200;-79
2022/04/11 03:51:33;;;;;;;0.80;0.80;;;;;;;;;;5073227;28;20675;-80
2022/04/11 03:54:00;;;;;;;0.73;0.73;;;;;;;;;;5072554;28;20197;-80
2022/04/11 03:56:27;;;;;;;0.90;0.90;;;;;;;;;;5072954;28;20292;-80
2022/04/11 03:58:56;;;;;;;0.80;0.80;;;;;;;;;;5072471;28;20276;-79
2022/04/11 04:01:23;;;;;;;0.80;0.80;;;;;;;;;;5072218;28;20209;-80
2022/04/11 04:03:50;;;;;;;0.90;0.90;;;;;;;;;;5066155;28;20238;-80
2022/04/11 04:06:18;;;;;;;0.67;0.67;;;;;;;;;;5060969;28;20562;-80
2022/04/11 04:08:45;;;;;;;0.90;0.90;;;;;;;;;;5052331;28;20241;-80
2022/04/11 04:11:12;;;;;;;0.73;0.73;;;;;;;;;;5052156;28;20695;-80
2022/04/11 04:13:39;;;;;;;0.90;0.90;;;;;;;;;;5052335;28;20198;-82
2022/04/11 04:16:08;;;;;;;0.80;0.80;;;;;;;;;;5052626;28;20666;-82
2022/04/11 04:18:35;;;;;;;0.80;0.80;;;;;;;;;;5053091;28;20583;-82
2022/04/11 04:21:02;;;;;;;0.90;0.90;;;;;;;;;;5052091;28;20222;-81
2022/04/11 04:23:30;;;;;;;1.30;1.20;;;;;;;;;;5052573;28;20197;-82
2022/04/11 04:25:57;;;;;;;1.10;1.10;;;;;;;;;;5052434;28;20729;-81
2022/04/11 04:28:25;;;;;;;1.40;1.30;;;;;;;;;;5051748;28;20198;-81
2022/04/11 04:30:52;;;;;;;1.73;1.63;;;;;;;;;;5052168;28;20678;-82
2022/04/11 04:33:20;;;;;;;1.70;1.60;;;;;;;;;;5052432;28;20202;-82
2022/04/11 04:35:48;;;;;;;2.13;2.03;;;;;;;;;;5052150;28;20202;-82
2022/04/11 04:38:15;;;;;;;2.00;1.90;;;;;;;;;;5052592;28;20248;-82
2022/04/11 04:40:42;;;;;;;1.77;1.67;;;;;;;;;;5052296;28;20230;-82
2022/04/11 04:43:09;;;;;;;1.80;1.70;;;;;;;;;;5052149;28;20288;-82
2022/04/11 04:45:37;;;;;;;1.57;1.47;;;;;;;;;;5051958;28;20673;-82
2022/04/11 04:48:05;;;;;;;2.03;1.93;;;;;;;;;;5051913;28;20605;-82
2022/04/11 04:50:34;;;;;;;2.87;2.33;;;;;;;;;;5051613;28;20217;-82
2022/04/11 04:53:01;;;;;;;2.07;1.97;;;;;;;;;;5052425;28;20202;-81
2022/04/11 04:55:29;;;;;;;1.63;1.47;;;;;;;;;;5050886;28;20236;-81
2022/04/11 04:57:56;;;;;;;2.53;2.33;;;;;;;;;;5051779;28;20202;-81
2022/04/11 05:00:23;;;;;;;1.80;1.70;;;;;;;;;;5050148;28;20276;-82
2022/04/11 05:02:50;;;;;;;1.80;1.70;;;;;;;;;;5052004;28;20198;-81
2022/04/11 05:05:18;;;;;;;1.83;1.73;;;;;;;;;;5051825;28;20244;-81
2022/04/11 05:07:46;;;;;;;1.80;1.70;;;;;;;;;;5051994;28;20197;-82
2022/04/11 05:10:14;;;;;;;1.83;1.73;;;;;;;;;;5060372;28;20574;-81
2022/04/11 05:12:42;;;;;;;2.97;2.70;;;;;;;;;;5065795;28;20240;-82
2022/04/11 05:15:11;;;;;;;2.30;2.10;;;;;;;;;;5071987;28;20192;-81
2022/04/11 05:17:38;;;;;;;2.10;2.00;;;;;;;;;;5069800;28;20292;-82
2022/04/11 05:20:07;;;;;;;1.93;1.80;;;;;;;;;;5051354;28;20237;-82
2022/04/11 05:22:34;;;;;;;2.50;2.30;;;;;;;;;;5052299;28;20271;-82
2022/04/11 05:25:03;;;;;;;2.50;2.30;;;;;;;;;;5051595;28;20284;-82
2022/04/11 05:27:31;;;;;;;2.50;2.30;;;;;;;;;;5052017;28;20229;-81
2022/04/11 05:29:58;;;;;;;2.83;2.37;;;;;;;;;;5051628;28;20193;-81
2022/04/11 05:32:25;;;;;;;2.60;2.40;;;;;;;;;;5051992;28;20279;-81
2022/04/11 05:34:52;;;;;;;2.90;2.70;;;;;;;;;;5051771;28;20252;-81
2022/04/11 05:37:20;;;;;;;3.00;2.70;;;;;;;;;;5051660;28;20206;-82
2022/04/11 05:39:47;;;;;;;2.13;2.03;;;;;;;;;;5051766;28;20206;-82
2022/04/11 05:42:16;;;;;;;2.83;2.63;;;;;;;;;;5055798;28;20224;-81
2022/04/11 05:44:43;;;;;;;4.77;2.87;;;;;;;;;;5055393;28;20198;-81
2022/04/11 05:47:12;;;;;;;2.67;2.47;;;;;;;;;;5055545;28;20289;-82
2022/04/11 05:49:39;;;;;;;2.40;2.23;;;;;;;;;;5055446;28;20212;-81
2022/04/11 05:52:07;;;;;;;3.30;2.27;;;;;;;;;;5055489;28;20194;-81
2022/04/11 05:54:38;;;;;;;2.47;2.27;;;;;;;;;;5055432;28;20205;-81
2022/04/11 05:57:06;;;;;;;2.20;2.10;;;;;;;;;;5055972;28;20318;-81
2022/04/11 05:59:34;;;;;;;2.33;2.13;;;;;;;;;;5055050;28;20835;-81
2022/04/11 06:02:02;;;;;;;3.73;3.33;;;;;;;;;;5055049;28;20221;-81
2022/04/11 06:04:29;;;;;;;1.90;1.80;;;;;;;;;;5066301;28;20205;-81
2022/04/11 06:06:56;;;;;;;4.47;3.30;;;;;;;;;;5075151;28;20292;-82
2022/04/11 06:09:24;;;;;;;3.70;3.37;;;;;;;;;;5075098;28;20630;-81
2022/04/11 06:11:51;;;;;;;4.37;3.60;;;;;;;;;;5075131;28;20223;-81
2022/04/11 06:14:18;;;;;;;7.37;5.13;;;;;;;;;;5075079;28;20209;-81
2022/04/11 06:16:47;;;;;;;4.80;3.57;;;;;;;;;;5075040;28;20205;-82
2022/04/11 06:19:14;;;;;;;4.50;4.10;;;;;;;;;;5074864;28;20208;-81
2022/04/11 06:21:41;;;;;;;8.53;7.33;;;;;;;;;;5074830;28;20770;-81
2022/04/11 06:24:09;;;;;;;4.90;4.50;;;;;;;;;;5074683;28;20193;-82
2022/04/11 06:26:36;;;;;;;5.87;5.33;;;;;;;;;;5074521;28;20197;-82
2022/04/11 06:29:03;;;;;;;5.83;5.33;;;;;;;;;;5074568;28;20204;-81
2022/04/11 06:31:31;;;;;;;5.43;4.93;;;;;;;;;;5074810;28;20193;-82
2022/04/11 06:33:59;;;;;;;3.03;2.73;;;;;;;;;;5074262;28;20201;-82
2022/04/11 06:36:27;;;;;;;3.23;2.97;;;;;;;;;;5074977;28;20209;-82
2022/04/11 06:38:54;;;;;;;3.77;2.57;;;;;;;;;;5074456;28;20288;-82
2022/04/11 06:41:21;;;;;;;3.57;3.27;;;;;;;;;;5074641;28;20260;-82
2022/04/11 06:43:48;;;;;;;2.90;2.70;;;;;;;;;;5074435;28;20193;-82
2022/04/11 06:46:16;;;;;;;3.17;2.93;;;;;;;;;;5074570;28;20284;-82
2022/04/11 06:48:43;;;;;;;3.03;2.83;;;;;;;;;;5074693;28;20716;-82
2022/04/11 06:51:12;;;;;;;3.30;3.00;;;;;;;;;;5074084;28;20189;-82
2022/04/11 06:53:39;;;;;;;6.30;4.70;;;;;;;;;;5074280;28;20197;-82
2022/04/11 06:56:06;;;;;;;3.30;3.00;;;;;;;;;;5073920;28;20193;-82
2022/04/11 06:58:34;;;;;;;2.63;2.43;;;;;;;;;;5074033;28;20207;-82
2022/04/11 07:01:01;;;;;;;3.20;2.90;;;;;;;;;;5074212;28;20221;-81
2022/04/11 07:03:31;;;;;;;2.50;2.30;;;;;;;;;;5074079;28;20672;-82
2022/04/11 07:05:58;;;;;;;3.23;2.73;;;;;;;;;;5074218;28;20223;-82
2022/04/11 07:08:27;;;;;;;18.97;12.17;;;;;;;;;;5074353;28;20657;-82
2022/04/11 07:10:54;;;;;;;12.07;8.13;;;;;;;;;;5074109;28;20236;-82
2022/04/11 07:13:21;;;;;;;8.10;6.73;;;;;;;;;;5074056;28;20572;-82
2022/04/11 07:15:49;;;;;;;5.40;4.27;;;;;;;;;;5073774;28;20207;-82
2022/04/11 07:18:16;;;;;;;4.07;3.77;;;;;;;;;;5073706;28;20208;-82
2022/04/11 07:20:43;;;;;;;3.93;3.57;;;;;;;;;;5073656;28;20287;-82
2022/04/11 07:23:10;;;;;;;5.23;4.23;;;;;;;;;;5073862;28;20189;-82
2022/04/11 07:25:39;;;;;;;3.40;3.10;;;;;;;;;;5073570;28;20695;-82
2022/04/11 07:28:07;;;;;;;2.00;1.90;;;;;;;;;;5073447;28;20193;-82
2022/04/11 07:30:34;;;;;;;2.57;2.37;;;;;;;;;;5073044;28;20231;-82
2022/04/11 07:33:01;;;;;;;2.93;2.73;;;;;;;;;;5073912;28;20597;-82
2022/04/11 07:35:28;;;;;;;2.53;2.33;;;;;;;;;;5073513;28;20205;-81
2022/04/11 07:37:57;;;;;;;1.93;1.83;;;;;;;;;;5073298;28;20291;-82
2022/04/11 07:40:25;;;;;;;3.37;2.23;;;;;;;;;;5073272;28;20197;-82
2022/04/11 07:42:54;;;;;;;2.57;2.37;;;;;;;;;;5073695;28;20221;-81
2022/04/11 07:45:21;;;;;;;1.90;1.80;;;;;;;;;;5072990;28;20280;-81
2022/04/11 07:47:49;;;;;;;2.43;2.20;;;;;;;;;;5073604;28;20201;-81
2022/04/11 07:50:16;;;;;;;3.13;1.90;;;;;;;;;;5073056;28;20201;-81
2022/04/11 07:52:44;;;;;;;1.53;1.43;;;;;;;;;;5062719;28;20201;-82
2022/04/11 07:55:15;;;;;;;2.57;1.73;;;;;;;;;;5054624;28;20301;-81
2022/04/11 07:57:42;;;;;;;2.20;2.00;;;;;;;;;;5073372;28;20189;-82
2022/04/11 08:00:12;;;;;;;2.60;2.10;;;;;;;;;;5072659;28;20235;-81
2022/04/11 08:02:40;;;;;;;2.57;2.17;;;;;;;;;;5071315;28;20252;-81
2022/04/11 08:05:08;;;;;;;2.53;2.33;;;;;;;;;;5052938;28;20665;-81
2022/04/11 08:07:35;;;;;;;1.93;1.83;;;;;;;;;;5052910;28;20740;-81
2022/04/11 08:10:03;;;;;;;2.20;2.00;;;;;;;;;;5052783;28;20228;-81
2022/04/11 08:12:30;;;;;;;2.27;2.07;;;;;;;;;;5052759;28;20197;-81
2022/04/11 08:14:58;;;;;;;2.57;2.27;;;;;;;;;;5052608;28;20203;-81
2022/04/11 08:17:27;;;;;;;2.70;2.50;;;;;;;;;;5052465;28;20198;-81
2022/04/11 08:19:54;;;;;;;2.77;2.57;;;;;;;;;;5052924;28;20658;-81
2022/04/11 08:22:21;;;;;;;2.83;2.63;;;;;;;;;;5052575;28;20722;-81
2022/04/11 08:24:48;;;;;;;1.83;1.73;;;;;;;;;;5052449;28;20190;-81
2022/04/11 08:27:16;;;;;;;4.17;3.00;;;;;;;;;;5052374;28;20284;-82
2022/04/11 08:29:44;;;;;;;2.70;2.10;;;;;;;;;;5052649;28;20640;-82
2022/04/11 08:32:12;;;;;;;4.00;2.63;;;;;;;;;;5052537;28;20194;-81
2022/04/11 08:34:41;;;;;;;2.87;2.23;;;;;;;;;;5052035;28;20669;-81
2022/04/11 08:37:08;;;;;;;2.00;1.90;;;;;;;;;;5063199;28;20216;-82
2022/04/11 08:39:35;;;;;;;3.77;3.47;;;;;;;;;;5072169;28;20258;-81
2022/04/11 08:42:03;;;;;;;2.40;2.20;;;;;;;;;;5072451;28;20634;-81
2022/04/11 08:44:30;;;;;;;2.90;1.63;;;;;;;;;;5072098;28;20197;-82
2022/04/11 08:47:02;;;;;;;2.27;2.07;;;;;;;;;;5072234;28;20657;-82
2022/04/11 08:49:30;;;;;;;2.17;1.50;;;;;;;;;;5072069;28;20188;-81
2022/04/11 08:51:59;;;;;;;2.90;2.03;;;;;;;;;;5072487;28;20609;-82
2022/04/11 08:54:26;;;;;;;2.53;1.87;;;;;;;;;;5071965;28;20359;-81
2022/04/11 08:56:53;;;;;;;2.33;2.13;;;;;;;;;;5071784;28;20197;-82
2022/04/11 08:59:21;;;;;;;5.13;4.00;;;;;;;;;;5071970;28;20319;-82
2022/04/11 09:01:48;;;;;;;4.60;4.20;;;;;;;;;;5071966;28;20221;-81
2022/04/11 09:04:15;;;;;;;2.17;1.97;;;;;;;;;;5071876;28;20239;-81
2022/04/11 09:06:42;;;;;;;2.50;2.30;;;;;;;;;;5071678;28;20288;-81
2022/04/11 09:09:13;;;;;;;2.23;2.00;;;;;;;;;;5071870;28;20279;-81
2022/04/11 09:11:40;;;;;;;2.30;2.10;;;;;;;;;;5071942;28;20181;-81
2022/04/11 09:14:08;;;;;;;2.13;1.80;;;;;;;;;;5071580;28;20228;-81
2022/04/11 09:16:45;;;;;;;4.13;2.70;;;;;;;;;;5071877;28;20208;-82
2022/04/11 09:19:22;;;;;;;18.50;12.70;;;;;;;;;;5071043;28;20201;-81
2022/04/11 09:21:50;;;;;;;9.07;6.63;;;;;;;;;;5071788;28;20231;-81
2022/04/11 09:24:20;;;;;;;8.20;4.50;;;;;;;;;;5071600;28;20201;-81
2022/04/11 09:26:48;;;;;;;7.53;5.87;;;;;;;;;;5071787;28;20207;-82
2022/04/11 09:29:16;;;;;;;8.27;6.47;;;;;;;;;;5071727;28;20197;-81
2022/04/11 09:31:44;;;;;;;15.57;9.57;;;;;;;;;;5071774;28;20192;-82
2022/04/11 09:34:16;;;;;;;21.47;12.83;;;;;;;;;;5071477;28;20227;-82
2022/04/11 09:36:47;;;;;;;1.57;1.47;;;;;;;;;;5071680;28;20580;-82
2022/04/11 09:39:15;;;;;;;3.73;3.20;;;;;;;;;;5071589;28;20296;-83
2022/04/11 09:41:47;;;;;;;2.43;2.23;;;;;;;;;;5071642;28;20243;-81
2022/04/11 09:44:21;;;;;;;1.87;1.60;;;;;;;;;;5056999;28;20261;-82
2022/04/11 09:46:49;;;;;;;2.47;2.27;;;;;;;;;;5051548;28;20287;-81
2022/04/11 09:49:16;;;;;;;4.07;3.33;;;;;;;;;;5051157;28;20202;-82
2022/04/11 09:52:07;;;;;;;6.00;5.17;;;;;;;;;;5051665;28;20197;-81
2022/04/11 09:54:35;;;;;;;2.57;2.37;;;;;;;;;;5051501;28;20190;-82
2022/04/11 09:57:05;;;;;;;2.47;1.90;;;;;;;;;;5051201;28;20198;-81
2022/04/11 09:59:33;;;;;;;1.80;1.70;;;;;;;;;;5051208;28;20230;-82
2022/04/11 10:02:01;;;;;;;3.00;2.70;;;;;;;;;;5051366;28;20222;-82
2022/04/11 10:04:28;;;;;;;1.80;1.50;;;;;;;;;;5051543;28;20645;-82
2022/04/11 10:06:56;;;;;;;2.30;2.10;;;;;;;;;;5051642;28;20220;-81
2022/04/11 10:09:24;;;;;;;2.13;1.97;;;;;;;;;;5051417;28;20700;-82
2022/04/11 10:11:53;;;;;;;2.17;1.87;;;;;;;;;;5051384;28;20194;-82
2022/04/11 10:14:27;;;;;;;2.23;2.03;;;;;;;;;;5051103;28;20198;-82
2022/04/11 10:16:56;;;;;;;2.07;1.90;;;;;;;;;;5051138;28;20194;-82
2022/04/11 10:19:25;;;;;;;2.20;2.10;;;;;;;;;;5051105;28;20205;-82
2022/04/11 10:21:54;;;;;;;2.40;2.20;;;;;;;;;;5051188;28;20289;-82
2022/04/11 10:24:33;;;;;;;2.50;1.93;;;;;;;;;;5051111;28;20225;-82
2022/04/11 10:27:25;;;;;;;1.93;1.83;;;;;;;;;;5053578;28;20196;-82
2022/04/11 10:29:55;;;;;;;1.93;1.60;;;;;;;;;;5054696;28;20189;-82
2022/04/11 10:32:23;;;;;;;1.67;1.57;;;;;;;;;;5054675;28;20198;-82
2022/04/11 10:34:53;;;;;;;1.57;1.40;;;;;;;;;;5054485;28;20645;-82
2022/04/11 10:37:23;;;;;;;1.33;1.23;;;;;;;;;;5055010;28;20229;-82
2022/04/11 10:39:51;;;;;;;1.70;1.60;;;;;;;;;;5054734;28;20220;-82
2022/04/11 10:42:24;;;;;;;1.40;1.30;;;;;;;;;;5054835;28;20701;-82
2022/04/11 10:44:54;;;;;;;1.33;1.23;;;;;;;;;;5054235;28;20743;-82
2022/04/11 10:47:36;;;;;;;3.63;1.40;;;;;;;;;;5054778;28;20186;-82
2022/04/11 10:50:26;;;;;;;3.97;1.33;;;;;;;;;;5054281;28;20204;-82
2022/04/11 10:53:10;;;;;;;1.30;1.20;;;;;;;;;;5054398;28;20192;-82
2022/04/11 10:55:54;;;;;;;4.57;2.27;;;;;;;;;;5054340;28;20221;-82
2022/04/11 10:58:22;;;;;;;1.60;1.50;;;;;;;;;;5054573;28;20608;-82
2022/04/11 11:00:52;;;;;;;1.40;1.30;;;;;;;;;;5053993;28;20241;-82
2022/04/11 11:03:20;;;;;;;1.33;1.33;;;;;;;;;;5054194;28;20226;-82
2022/04/11 11:05:49;;;;;;;1.63;1.53;;;;;;;;;;5053985;28;20201;-83
2022/04/11 11:08:33;;;;;;;2.03;1.60;;;;;;;;;;5054098;28;20204;-82
2022/04/11 11:11:03;;;;;;;1.53;1.43;;;;;;;;;;5054215;28;20189;-83
2022/04/11 11:13:40;;;;;;;2.50;2.30;;;;;;;;;;5053852;28;20654;-82
2022/04/11 11:16:41;;;;;;;2.67;2.07;;;;;;;;;;5053878;28;20273;-82
2022/04/11 11:19:17;;;;;;;3.50;3.20;;;;;;;;;;5053810;28;20198;-82
2022/04/11 11:22:04;;;;;;;3.87;3.43;;;;;;;;;;5053582;28;20253;-82
2022/04/11 11:24:31;;;;;;;2.03;1.83;;;;;;;;;;5053667;28;20237;-82
2022/04/11 11:27:03;;;;;;;2.80;2.50;;;;;;;;;;5054032;28;20657;-83
2022/04/11 11:29:32;;;;;;;2.90;2.60;;;;;;;;;;5053869;28;20194;-83
2022/04/11 11:32:04;;;;;;;3.23;2.03;;;;;;;;;;5053410;28;20198;-82
2022/04/11 11:34:32;;;;;;;1.73;1.63;;;;;;;;;;5053808;28;20224;-82
2022/04/11 11:37:01;;;;;;;1.60;1.50;;;;;;;;;;5053488;28;20576;-83
2022/04/11 11:39:29;;;;;;;3.17;2.63;;;;;;;;;;5053135;28;20229;-83
2022/04/11 11:42:02;;;;;;;1.63;1.53;;;;;;;;;;5053530;28;20245;-82
2022/04/11 11:44:31;;;;;;;2.00;1.90;;;;;;;;;;5053356;28;20222;-82
2022/04/11 11:47:01;;;;;;;2.40;2.20;;;;;;;;;;5053594;28;20658;-82
2022/04/11 11:49:29;;;;;;;1.47;1.37;;;;;;;;;;5053360;28;20201;-82
2022/04/11 11:51:56;;;;;;;1.50;1.40;;;;;;;;;;5053321;28;20678;-83
2022/04/11 11:54:35;;;;;;;1.40;1.30;;;;;;;;;;5053353;28;20658;-82
2022/04/11 11:57:02;;;;;;;2.03;1.90;;;;;;;;;;5053085;28;20247;-82
2022/04/11 11:59:29;;;;;;;1.90;1.80;;;;;;;;;;5070441;28;20236;-82
2022/04/11 12:04:40;;;;;;;2.77;2.10;;;;;;;;;;5072034;28;20193;-82
2022/04/11 12:07:07;;;;;;;1.70;1.60;;;;;;;;;;5072826;28;20574;-82
2022/04/11 12:09:35;;;;;;;2.73;2.03;;;;;;;;;;5072688;28;20193;-82
2022/04/11 12:12:04;;;;;;;2.10;1.90;;;;;;;;;;5072822;28;20254;-82
2022/04/11 12:14:31;;;;;;;4.37;3.60;;;;;;;;;;5054902;28;20255;-82
2022/04/11 12:17:01;;;;;;;3.10;2.80;;;;;;;;;;5053247;28;20247;-82
2022/04/11 12:19:36;;;;;;;1.37;1.30;;;;;;;;;;5052625;28;20197;-82
2022/04/11 12:22:15;;;;;;;1.57;1.47;;;;;;;;;;5052481;28;20296;-82
2022/04/11 12:24:42;;;;;;;1.53;1.43;;;;;;;;;;5052743;28;20197;-82
2022/04/11 12:27:13;;;;;;;1.80;1.70;;;;;;;;;;5052839;28;20614;-82
2022/04/11 12:29:41;;;;;;;2.00;1.90;;;;;;;;;;5052122;28;20193;-82
2022/04/11 12:32:13;;;;;;;2.07;1.97;;;;;;;;;;5052538;28;20205;-82
2022/04/11 12:34:42;;;;;;;1.97;1.83;;;;;;;;;;5052378;28;20657;-82
2022/04/11 12:37:11;;;;;;;2.00;1.90;;;;;;;;;;5052509;28;20720;-83
2022/04/11 12:39:53;;;;;;;2.33;2.00;;;;;;;;;;5052471;28;20592;-83
2022/04/11 12:42:21;;;;;;;1.70;1.60;;;;;;;;;;5052420;28;20194;-83
2022/04/11 12:44:48;;;;;;;2.07;1.87;;;;;;;;;;5071479;28;20241;-82
2022/04/11 12:47:16;;;;;;;2.70;2.10;;;;;;;;;;5072572;28;20574;-82
2022/04/11 12:49:44;;;;;;;1.90;1.80;;;;;;;;;;5071949;28;20197;-82
2022/04/11 12:52:12;;;;;;;1.97;1.80;;;;;;;;;;5071993;28;20224;-82
2022/04/11 12:54:40;;;;;;;1.40;1.30;;;;;;;;;;5072258;28;20199;-82
2022/04/11 12:57:11;;;;;;;1.63;1.53;;;;;;;;;;5072147;28;20201;-82
2022/04/11 12:59:40;;;;;;;1.80;1.70;;;;;;;;;;5071894;28;20674;-83
2022/04/11 13:02:09;;;;;;;1.80;1.70;;;;;;;;;;5072086;28;20197;-83
2022/04/11 13:04:37;;;;;;;2.37;2.20;;;;;;;;;;5071934;28;20227;-83
2022/04/11 13:07:06;;;;;;;2.23;1.90;;;;;;;;;;5072519;28;20197;-83
2022/04/11 13:09:33;;;;;;;2.23;2.10;;;;;;;;;;5071800;28;20681;-83
2022/04/11 13:12:01;;;;;;;2.50;2.30;;;;;;;;;;5071700;28;20204;-83
2022/04/11 13:14:30;;;;;;;2.23;2.03;;;;;;;;;;5071719;28;20189;-83
2022/04/11 13:19:42;;;;;;;2.87;2.60;;;;;;;;;;5071632;28;20260;-83
2022/04/11 13:22:09;;;;;;;3.00;2.70;;;;;;;;;;5071758;28;20287;-83
2022/04/11 13:24:36;;;;;;;2.33;2.13;;;;;;;;;;5071581;28;20223;-83
2022/04/11 13:27:03;;;;;;;1.90;1.80;;;;;;;;;;5071858;28;20197;-83
2022/04/11 13:29:32;;;;;;;2.33;1.73;;;;;;;;;;5071617;28;20656;-83
2022/04/11 13:32:00;;;;;;;2.23;2.10;;;;;;;;;;5072236;28;20280;-83
2022/04/11 13:34:28;;;;;;;2.90;2.60;;;;;;;;;;5071513;28;20204;-83
2022/04/11 13:36:55;;;;;;;2.93;2.73;;;;;;;;;;5071666;28;20199;-83
2022/04/11 13:39:23;;;;;;;3.70;2.20;;;;;;;;;;5071693;28;20589;-83
2022/04/11 13:41:50;;;;;;;2.13;1.87;;;;;;;;;;5071646;28;20699;-83
2022/04/11 13:44:18;;;;;;;2.97;2.47;;;;;;;;;;5071922;28;20636;-83
2022/04/11 13:46:48;;;;;;;1.87;1.77;;;;;;;;;;5058144;28;20212;-83
2022/04/11 13:49:16;;;;;;;3.20;2.90;;;;;;;;;;5051483;28;20659;-83
2022/04/11 13:51:43;;;;;;;2.47;2.27;;;;;;;;;;5051564;28;20226;-83
2022/04/11 13:54:10;;;;;;;2.50;2.30;;;;;;;;;;5051346;28;20200;-83
2022/04/11 13:56:40;;;;;;;3.10;2.90;;;;;;;;;;5051490;28;20297;-83
2022/04/11 13:59:09;;;;;;;3.63;2.30;;;;;;;;;;5051367;28;20233;-82
2022/04/11 14:01:38;;;;;;;4.10;3.00;;;;;;;;;;5053364;28;20197;-83
2022/04/11 14:04:07;;;;;;;6.03;4.60;;;;;;;;;;5055019;28;20221;-82
2022/04/11 14:06:34;;;;;;;9.43;5.30;;;;;;;;;;5055553;28;20198;-83
2022/04/11 14:09:02;;;;;;;3.10;2.90;;;;;;;;;;5055141;28;20202;-83
2022/04/11 14:11:30;;;;;;;4.17;3.33;;;;;;;;;;5055519;28;20670;-83
2022/04/11 14:13:57;;;;;;;4.03;3.00;;;;;;;;;;5054991;28;20204;-83
2022/04/11 14:16:24;;;;;;;5.27;4.23;;;;;;;;;;5055113;28;20290;-83
2022/04/11 14:18:52;;;;;;;3.20;2.90;;;;;;;;;;5054906;28;20197;-83
2022/04/11 14:21:20;;;;;;;3.90;3.47;;;;;;;;;;5055029;28;20279;-83
2022/04/11 14:23:48;;;;;;;5.77;2.83;;;;;;;;;;5055075;28;20223;-83
2022/04/11 14:26:15;;;;;;;2.83;2.60;;;;;;;;;;5055164;28;20197;-83
2022/04/11 14:28:43;;;;;;;5.03;3.70;;;;;;;;;;5055102;28;20197;-83
2022/04/11 14:31:13;;;;;;;2.67;2.47;;;;;;;;;;5054524;28;20255;-83
2022/04/11 14:33:41;;;;;;;2.30;2.17;;;;;;;;;;5054740;28;20237;-83
2022/04/11 14:36:09;;;;;;;3.70;3.23;;;;;;;;;;5054657;28;20225;-82
2022/04/11 14:38:39;;;;;;;2.60;2.40;;;;;;;;;;5054686;28;20194;-83
2022/04/11 14:41:08;;;;;;;3.17;2.83;;;;;;;;;;5054339;28;20217;-83
2022/04/11 14:43:36;;;;;;;2.67;2.47;;;;;;;;;;5054447;28;20226;-82
2022/04/11 14:46:03;;;;;;;3.47;3.20;;;;;;;;;;5054494;28;20740;-83
2022/04/11 14:48:30;;;;;;;4.13;3.10;;;;;;;;;;5054839;28;20631;-83
2022/04/11 14:50:58;;;;;;;3.87;3.33;;;;;;;;;;5054266;28;20197;-83
2022/04/11 14:53:26;;;;;;;4.97;3.00;;;;;;;;;;5053893;28;20674;-83
2022/04/11 14:55:54;;;;;;;5.23;4.73;;;;;;;;;;5060475;28;20193;-83
2022/04/11 14:58:22;;;;;;;8.07;5.90;;;;;;;;;;5074556;28;20211;-83